createdAt,value
2023-04-09T05:59:31.960Z,77.00
2023-04-09T06:02:34.818Z,76.90
2023-04-09T06:05:36.821Z,76.90
2023-04-09T06:08:39.084Z,77.10
2023-04-09T06:11:41.124Z,77.30
2023-04-09T06:14:42.830Z,77.20
2023-04-09T06:17:44.760Z,77.30
2023-04-09T06:20:46.493Z,77.20
2023-04-09T06:23:48.141Z,77.40
2023-04-09T06:26:49.840Z,77.50
2023-04-09T06:29:51.927Z,77.60
2023-04-09T06:32:55.398Z,77.50
2023-04-09T06:35:57.298Z,77.80
2023-04-09T06:38:59.323Z,77.80
2023-04-09T06:42:01.118Z,77.50
2023-04-09T06:45:02.838Z,77.30
2023-04-09T06:48:04.954Z,77.10
2023-04-09T06:51:07.460Z,76.80
2023-04-09T06:54:09.117Z,77.00
2023-04-09T06:57:10.749Z,77.00
2023-04-09T07:00:13.021Z,76.70
2023-04-09T07:03:14.971Z,76.60
2023-04-09T07:06:16.678Z,76.60
2023-04-09T07:09:18.749Z,76.60
2023-04-09T07:12:33.674Z,76.40
2023-04-09T07:15:35.387Z,75.90
2023-04-09T07:18:37.798Z,75.70
2023-04-09T07:21:39.466Z,75.40
2023-04-09T07:24:41.723Z,75.50
2023-04-09T07:27:43.382Z,75.50
2023-04-09T07:30:47.001Z,75.50
2023-04-09T07:33:48.560Z,75.70
2023-04-09T07:36:50.680Z,76.00
2023-04-09T07:39:52.617Z,75.80
2023-04-09T07:42:55.676Z,75.40
2023-04-09T07:45:57.362Z,75.10
2023-04-09T07:48:59.437Z,75.20
2023-04-09T07:52:01.332Z,75.60
2023-04-09T07:55:03.329Z,75.80
2023-04-09T07:58:05.909Z,76.10
2023-04-09T08:01:07.590Z,76.30
2023-04-09T08:04:10.073Z,76.30
2023-04-09T08:07:12.032Z,76.20
2023-04-09T08:10:16.152Z,75.90
2023-04-09T08:13:17.850Z,75.40
2023-04-09T08:16:21.235Z,75.00
2023-04-09T08:19:22.953Z,74.70
2023-04-09T08:22:24.640Z,74.60
2023-04-09T08:25:26.362Z,74.40
2023-04-09T08:28:28.202Z,74.10
2023-04-09T08:31:29.974Z,73.80
2023-04-09T08:34:31.672Z,73.30
2023-04-09T08:37:33.395Z,73.00
2023-04-09T08:40:36.082Z,72.70
2023-04-09T08:43:56.487Z,72.40
2023-04-09T08:46:59.779Z,72.10
2023-04-09T08:50:01.510Z,71.80
2023-04-09T08:53:04.676Z,71.70
2023-04-09T08:56:06.484Z,71.50
2023-04-09T08:59:08.871Z,71.30
2023-04-09T09:02:11.556Z,71.20
2023-04-09T09:05:13.818Z,70.90
2023-04-09T09:08:25.190Z,70.80
2023-04-09T09:11:27.232Z,70.70
2023-04-09T09:14:28.911Z,70.70
2023-04-09T09:17:30.777Z,70.90
2023-04-09T09:20:32.585Z,71.20
2023-04-09T09:23:37.130Z,71.50
2023-04-09T09:26:38.908Z,71.70
2023-04-09T09:29:45.000Z,71.60
2023-04-09T09:32:46.793Z,71.10
2023-04-09T09:35:50.115Z,70.40
2023-04-09T09:38:54.202Z,69.90
2023-04-09T09:42:07.405Z,69.50
2023-04-09T09:45:19.310Z,69.10
2023-04-09T09:48:21.030Z,69.00
2023-04-09T09:51:26.484Z,68.70
2023-04-09T09:54:28.144Z,68.20
2023-04-09T09:57:29.861Z,67.30
2023-04-09T10:00:32.417Z,66.50
2023-04-09T10:03:34.461Z,66.10
2023-04-09T10:06:37.167Z,65.40
2023-04-09T10:09:38.950Z,65.10
2023-04-09T10:12:41.847Z,64.90
2023-04-09T10:15:44.678Z,64.60
2023-04-09T10:18:46.397Z,64.50
2023-04-09T10:21:53.963Z,64.40
2023-04-09T10:24:55.971Z,64.30
2023-04-09T10:28:01.459Z,64.50
2023-04-09T10:31:04.903Z,64.40
2023-04-09T10:34:07.733Z,64.30
2023-04-09T10:37:15.739Z,64.00
2023-04-09T10:40:21.691Z,63.60
2023-04-09T10:43:23.708Z,63.70
2023-04-09T10:46:34.067Z,63.60
2023-04-09T10:49:37.925Z,63.50
2023-04-09T10:52:40.986Z,63.30
2023-04-09T10:55:44.343Z,63.20
2023-04-09T10:58:46.128Z,63.20
2023-04-09T11:01:54.623Z,63.00
2023-04-09T11:05:22.175Z,62.80
2023-04-09T11:08:23.866Z,62.60
2023-04-09T11:11:29.279Z,62.40
2023-04-09T11:14:31.694Z,62.20
2023-04-09T11:17:36.298Z,62.10
2023-04-09T11:20:38.557Z,61.70
2023-04-09T11:23:40.262Z,61.70
2023-04-09T11:26:41.898Z,61.60
2023-04-09T11:29:43.552Z,61.30
2023-04-09T11:32:45.520Z,60.90
2023-04-09T11:35:47.585Z,60.90
2023-04-09T11:38:50.372Z,60.90
2023-04-09T11:41:52.321Z,60.70
2023-04-09T11:44:53.988Z,60.30
2023-04-09T11:47:56.142Z,60.10
2023-04-09T11:50:57.806Z,60.00
2023-04-09T11:54:05.549Z,59.90
2023-04-09T11:57:07.561Z,59.50
2023-04-09T12:00:11.126Z,59.40
2023-04-09T12:03:13.256Z,59.10
2023-04-09T12:06:15.150Z,58.60
2023-04-09T12:09:16.863Z,58.10
2023-04-09T12:12:19.424Z,57.60
2023-04-09T12:15:24.957Z,57.20
2023-04-09T12:18:26.639Z,56.80
2023-04-09T12:21:48.950Z,56.50
2023-04-09T12:24:50.617Z,56.10
2023-04-09T12:27:52.267Z,55.80
2023-04-09T12:30:54.414Z,55.80
2023-04-09T12:33:56.129Z,55.40
2023-04-09T12:36:57.787Z,55.40
2023-04-09T12:40:00.255Z,55.40
2023-04-09T12:43:02.426Z,55.20
2023-04-09T12:46:04.503Z,55.00
2023-04-09T12:49:06.423Z,54.80
2023-04-09T12:52:08.062Z,54.40
2023-04-09T12:55:10.381Z,54.10
2023-04-09T12:58:12.089Z,54.00
2023-04-09T13:01:13.918Z,53.90
2023-04-09T13:04:16.269Z,53.60
2023-04-09T13:07:19.078Z,53.30
2023-04-09T13:10:20.774Z,53.00
2023-04-09T13:13:22.704Z,52.80
2023-04-09T13:16:24.369Z,52.70
2023-04-09T13:19:26.351Z,52.40
2023-04-09T13:22:28.031Z,52.20
2023-04-09T13:25:29.876Z,52.00
2023-04-09T13:28:31.646Z,52.00
2023-04-09T13:31:35.278Z,51.90
2023-04-09T13:34:36.995Z,51.70
2023-04-09T13:37:38.645Z,51.30
2023-04-09T13:40:40.677Z,50.80
2023-04-09T13:43:42.320Z,50.40
2023-04-09T13:46:44.073Z,50.00
2023-04-09T13:49:46.161Z,49.50
2023-04-09T13:52:47.988Z,49.10
2023-04-09T13:55:49.622Z,48.60
2023-04-09T13:58:51.764Z,48.00
2023-04-09T14:01:53.713Z,47.20
2023-04-09T14:04:55.532Z,47.00
2023-04-09T14:07:57.215Z,46.50
2023-04-09T14:10:59.102Z,46.10
2023-04-09T14:14:00.842Z,45.80
2023-04-09T14:17:02.547Z,45.70
2023-04-09T14:20:04.783Z,45.30
2023-04-09T14:23:06.438Z,45.10
2023-04-09T14:26:08.491Z,44.80
2023-04-09T14:29:10.897Z,44.60
2023-04-09T14:32:12.567Z,44.60
2023-04-09T14:35:14.307Z,44.10
2023-04-09T14:38:17.726Z,43.70
2023-04-09T14:41:19.852Z,43.20
2023-04-09T14:44:21.562Z,42.90
2023-04-09T14:47:23.300Z,42.70
2023-04-09T14:50:25.249Z,42.60
2023-04-09T14:53:26.940Z,42.60
2023-04-09T14:56:28.606Z,42.70
2023-04-09T14:59:30.253Z,42.60
2023-04-09T15:02:32.723Z,42.60
2023-04-09T15:05:34.438Z,42.70
2023-04-09T15:08:36.248Z,42.50
2023-04-09T15:11:38.173Z,41.50
2023-04-09T15:14:39.815Z,41.40
2023-04-09T15:17:41.603Z,41.00
2023-04-09T15:20:43.483Z,40.50
2023-04-09T15:23:46.133Z,39.90
2023-04-09T15:26:47.904Z,39.40
2023-04-09T15:29:49.648Z,39.20
2023-04-09T15:32:51.406Z,38.60
2023-04-09T15:35:53.088Z,38.10
2023-04-09T15:38:55.196Z,38.40
2023-04-09T15:41:57.643Z,38.40
2023-04-09T15:44:59.368Z,38.70
2023-04-09T15:48:01.579Z,39.20
2023-04-09T15:51:04.924Z,39.60
2023-04-09T15:54:06.686Z,40.00
2023-04-09T15:57:08.356Z,40.30
2023-04-09T16:00:10.988Z,40.60
2023-04-09T16:03:12.741Z,41.10
2023-04-09T16:06:14.442Z,41.40
2023-04-09T16:09:16.296Z,41.50
2023-04-09T16:12:17.943Z,41.80
2023-04-09T16:15:19.581Z,42.20
2023-04-09T16:18:21.491Z,42.60
2023-04-09T16:21:23.202Z,43.00
2023-04-09T16:24:24.825Z,43.50
2023-04-09T16:27:26.456Z,43.90
2023-04-09T16:30:28.927Z,44.30
2023-04-09T16:33:31.263Z,44.60
2023-04-09T16:36:36.822Z,44.70
2023-04-09T16:39:39.726Z,44.90
2023-04-09T16:42:41.354Z,45.20
2023-04-09T16:45:43.058Z,45.30
2023-04-09T16:48:44.819Z,45.30
2023-04-09T16:51:46.549Z,45.50
2023-04-09T16:54:48.197Z,45.50
2023-04-09T16:57:49.917Z,45.80
2023-04-09T17:00:52.152Z,45.90
2023-04-09T17:03:54.088Z,46.00
2023-04-09T17:06:55.864Z,46.10
2023-04-09T17:09:57.822Z,46.00
2023-04-09T17:12:59.506Z,45.90
2023-04-09T17:16:02.480Z,46.00
2023-04-09T17:19:04.414Z,46.10
2023-04-09T17:22:06.295Z,46.20
2023-04-09T17:25:08.594Z,46.50
2023-04-09T17:28:10.296Z,46.70
2023-04-09T17:31:13.728Z,46.80
2023-04-09T17:34:16.296Z,47.00
2023-04-09T17:37:17.960Z,47.20
2023-04-09T17:40:20.142Z,47.30
2023-04-09T17:43:21.840Z,47.30
2023-04-09T17:46:23.775Z,47.50
2023-04-09T17:49:26.995Z,47.60
2023-04-09T17:52:29.480Z,47.70
2023-04-09T17:55:31.343Z,47.80
2023-04-09T17:58:34.190Z,47.90
2023-04-09T18:01:36.034Z,48.10
2023-04-09T18:04:38.167Z,48.20
2023-04-09T18:07:40.037Z,48.30
2023-04-09T18:10:42.226Z,48.50
2023-04-09T18:13:43.904Z,48.80
2023-04-09T18:16:45.552Z,49.00
2023-04-09T18:19:47.568Z,49.20
2023-04-09T18:22:49.501Z,49.40
2023-04-09T18:25:51.512Z,49.80
2023-04-09T18:28:53.417Z,50.10
2023-04-09T18:31:58.579Z,50.40
2023-04-09T18:35:00.357Z,50.70
2023-04-09T18:38:02.020Z,51.10
2023-04-09T18:41:05.445Z,51.40
2023-04-09T18:44:07.192Z,51.70
2023-04-09T18:47:09.354Z,52.00
2023-04-09T18:50:12.549Z,52.20
2023-04-09T18:53:14.169Z,52.30
2023-04-09T18:56:15.805Z,52.60
2023-04-09T18:59:17.722Z,52.60
2023-04-09T19:02:19.558Z,52.70
2023-04-09T19:05:21.240Z,52.90
2023-04-09T19:08:23.126Z,53.00
2023-04-09T19:11:27.516Z,53.10
2023-04-09T19:14:29.213Z,53.20
2023-04-09T19:17:30.882Z,53.20
2023-04-09T19:20:32.955Z,53.40
2023-04-09T19:23:35.018Z,53.40
2023-04-09T19:26:37.266Z,53.50
2023-04-09T19:29:39.385Z,53.50
2023-04-09T19:32:43.808Z,53.60
2023-04-09T19:35:48.054Z,53.60
2023-04-09T19:38:51.136Z,53.70
2023-04-09T19:41:52.865Z,53.70
2023-04-09T19:44:55.092Z,53.90
2023-04-09T19:47:56.794Z,54.00
2023-04-09T19:50:58.653Z,54.00
2023-04-09T19:54:00.431Z,54.00
2023-04-09T19:57:03.591Z,54.20
2023-04-09T20:00:07.114Z,54.20
2023-04-09T20:03:09.308Z,54.30
2023-04-09T20:06:11.218Z,54.30
2023-04-09T20:09:13.502Z,54.40
2023-04-09T20:12:15.280Z,54.40
2023-04-09T20:15:20.171Z,54.50
2023-04-09T20:18:22.403Z,54.60
2023-04-09T20:21:24.157Z,54.60
2023-04-09T20:24:28.005Z,54.60
2023-04-09T20:27:29.646Z,54.70
2023-04-09T20:30:32.110Z,54.70
2023-04-09T20:33:34.290Z,54.80
2023-04-09T20:36:37.675Z,55.00
2023-04-09T20:39:39.644Z,55.00
2023-04-09T20:42:41.595Z,55.00
2023-04-09T20:45:43.339Z,55.00
2023-04-09T20:48:45.315Z,55.00
2023-04-09T20:51:47.620Z,55.20
2023-04-09T20:54:49.317Z,55.20
2023-04-09T20:57:51.843Z,55.20
2023-04-09T21:01:05.029Z,55.30
2023-04-09T21:04:07.136Z,55.40
2023-04-09T21:07:08.888Z,55.40
2023-04-09T21:10:10.963Z,55.60
2023-04-09T21:13:12.715Z,55.70
2023-04-09T21:16:14.426Z,55.80
2023-04-09T21:19:16.629Z,55.80
2023-04-09T21:22:18.302Z,56.10
2023-04-09T21:25:20.015Z,56.20
